BUCK10 YAMB-YAMB
Flight info
| Callsign | BUCK10 |
|---|---|
| Flight time | 0h 35m |
| Altitude | 40000 |
| Route | TATEN DCT APAGI DCT ALDAR/N0390F200 W128 SANAD/N0451F400 DCT YWLM DCT WLM088025 DCT 321502S1524728E DCT SEMAJ DCT CG |
| Aircraft | F18S/M-SDGHITUY/LB1 |
Departure
| Time | 2026-04-26 05:18 |
|---|---|
| Airport | RAAF Base Amberley (YAMB) |
Arrival
| Time | 2026-04-26 05:54 |
|---|---|
| Airport | RAAF Base Amberley (YAMB) |
| Time | Latitude | Longitude | Altitude | Speed | Heading |
|---|---|---|---|---|---|
| 2026-04-26 05:08 | -27.63180 | 152.70519 | 96 ft | 0 kts | 131° |
| 2026-04-26 05:14 | -27.63193 | 152.70562 | 93 ft | 14 kts | 78° |
| 2026-04-26 05:14 | -27.63183 | 152.70591 | 96 ft | 0 kts | 69° |
| 2026-04-26 05:15 | -27.63175 | 152.70613 | 94 ft | 12 kts | 67° |
| 2026-04-26 05:15 | -27.63176 | 152.70712 | 92 ft | 14 kts | 70° |
| 2026-04-26 05:15 | -27.63077 | 152.70708 | 91 ft | 24 kts | 339° |
| 2026-04-26 05:15 | -27.62894 | 152.70629 | 93 ft | 32 kts | 340° |
| 2026-04-26 05:16 | -27.62659 | 152.70523 | 91 ft | 40 kts | 338° |
| 2026-04-26 05:16 | -27.62392 | 152.70404 | 91 ft | 36 kts | 338° |
| 2026-04-26 05:16 | -27.62229 | 152.70393 | 91 ft | 2 kts | 44° |
| 2026-04-26 05:17 | -27.62212 | 152.70424 | 91 ft | 11 kts | 64° |
| 2026-04-26 05:17 | -27.62198 | 152.70532 | 93 ft | 14 kts | 127° |
| 2026-04-26 05:17 | -27.62233 | 152.70556 | 94 ft | 0 kts | 157° |
| 2026-04-26 05:18 | -27.62395 | 152.70628 | 91 ft | 97 kts | 159° |
| 2026-04-26 05:18 | -27.63624 | 152.71157 | 190 ft | 280 kts | 157° |
| 2026-04-26 05:18 | -27.65706 | 152.72074 | 2747 ft | 363 kts | 157° |
| 2026-04-26 05:18 | -27.68020 | 152.73117 | 5178 ft | 289 kts | 155° |
| 2026-04-26 05:19 | -27.69622 | 152.73845 | 8457 ft | 240 kts | 155° |
| 2026-04-26 05:19 | -27.71153 | 152.74565 | 12220 ft | 224 kts | 154° |
| 2026-04-26 05:19 | -27.73126 | 152.75531 | 13035 ft | 371 kts | 154° |
| 2026-04-26 05:19 | -27.75605 | 152.76839 | 13262 ft | 395 kts | 153° |
| 2026-04-26 05:20 | -27.78050 | 152.78184 | 13555 ft | 385 kts | 152° |
| 2026-04-26 05:20 | -27.80425 | 152.79552 | 13704 ft | 380 kts | 150° |
| 2026-04-26 05:20 | -27.82339 | 152.81650 | 13209 ft | 387 kts | 131° |
| 2026-04-26 05:20 | -27.84088 | 152.83895 | 13309 ft | 384 kts | 130° |
| 2026-04-26 05:21 | -27.85815 | 152.86264 | 13353 ft | 419 kts | 128° |
| 2026-04-26 05:21 | -27.87687 | 152.88910 | 13622 ft | 437 kts | 128° |
| 2026-04-26 05:21 | -27.89590 | 152.91636 | 13730 ft | 446 kts | 128° |
| 2026-04-26 05:21 | -27.91530 | 152.94417 | 13780 ft | 454 kts | 128° |
| 2026-04-26 05:22 | -27.93499 | 152.97235 | 13911 ft | 458 kts | 128° |
| 2026-04-26 05:22 | -27.95477 | 153.00059 | 14234 ft | 456 kts | 128° |
| 2026-04-26 05:22 | -27.97462 | 153.02883 | 13752 ft | 469 kts | 128° |
| 2026-04-26 05:22 | -27.99534 | 153.05892 | 12320 ft | 483 kts | 127° |
| 2026-04-26 05:23 | -28.01444 | 153.08706 | 11032 ft | 425 kts | 127° |
| 2026-04-26 05:23 | -28.03238 | 153.11421 | 9834 ft | 471 kts | 126° |
| 2026-04-26 05:23 | -28.05439 | 153.14860 | 10137 ft | 606 kts | 125° |
| 2026-04-26 05:23 | -28.07928 | 153.18830 | 10165 ft | 586 kts | 124° |
| 2026-04-26 05:24 | -28.10111 | 153.22510 | 8931 ft | 544 kts | 123° |
| 2026-04-26 05:24 | -28.12084 | 153.25958 | 8796 ft | 502 kts | 122° |
| 2026-04-26 05:24 | -28.13906 | 153.29214 | 8690 ft | 474 kts | 122° |
| 2026-04-26 05:24 | -28.15604 | 153.32316 | 8785 ft | 454 kts | 121° |
| 2026-04-26 05:25 | -28.17232 | 153.35385 | 8468 ft | 477 kts | 120° |
| 2026-04-26 05:25 | -28.19162 | 153.39090 | 8481 ft | 623 kts | 120° |
| 2026-04-26 05:25 | -28.21441 | 153.43555 | 9348 ft | 633 kts | 120° |
| 2026-04-26 05:25 | -28.23450 | 153.47556 | 9062 ft | 544 kts | 119° |
| 2026-04-26 05:26 | -28.25213 | 153.51138 | 8414 ft | 498 kts | 118° |
| 2026-04-26 05:26 | -28.26813 | 153.54449 | 8253 ft | 463 kts | 118° |
| 2026-04-26 05:26 | -28.28276 | 153.57590 | 8015 ft | 442 kts | 117° |
| 2026-04-26 05:26 | -28.29636 | 153.60657 | 8184 ft | 409 kts | 116° |
| 2026-04-26 05:27 | -28.30852 | 153.63517 | 8548 ft | 400 kts | 116° |
| 2026-04-26 05:27 | -28.32138 | 153.66268 | 8386 ft | 391 kts | 145° |
| 2026-04-26 05:27 | -28.34899 | 153.66164 | 5610 ft | 405 kts | 187° |
| 2026-04-26 05:27 | -28.37654 | 153.65662 | 1952 ft | 399 kts | 186° |
| 2026-04-26 05:28 | -28.40365 | 153.65218 | 853 ft | 410 kts | 190° |
| 2026-04-26 05:28 | -28.43181 | 153.64283 | 1105 ft | 422 kts | 190° |
| 2026-04-26 05:28 | -28.46088 | 153.64173 | 1288 ft | 420 kts | 174° |
| 2026-04-26 05:28 | -28.48946 | 153.64910 | 1267 ft | 422 kts | 161° |
| 2026-04-26 05:29 | -28.51742 | 153.65954 | 1275 ft | 424 kts | 161° |
| 2026-04-26 05:29 | -28.54524 | 153.67017 | 1610 ft | 417 kts | 160° |
| 2026-04-26 05:29 | -28.57325 | 153.67734 | 1685 ft | 421 kts | 175° |
| 2026-04-26 05:29 | -28.60210 | 153.67359 | 1706 ft | 425 kts | 187° |
| 2026-04-26 05:30 | -28.63162 | 153.66763 | 1719 ft | 427 kts | 193° |
| 2026-04-26 05:30 | -28.65968 | 153.65784 | 1776 ft | 429 kts | 196° |
| 2026-04-26 05:30 | -28.68818 | 153.64781 | 1778 ft | 428 kts | 189° |
| 2026-04-26 05:30 | -28.71748 | 153.65030 | 1777 ft | 424 kts | 164° |
| 2026-04-26 05:31 | -28.74603 | 153.65901 | 1808 ft | 426 kts | 164° |
| 2026-04-26 05:31 | -28.77467 | 153.66784 | 1832 ft | 427 kts | 163° |
| 2026-04-26 05:31 | -28.80581 | 153.67757 | 1850 ft | 543 kts | 163° |
| 2026-04-26 05:31 | -28.84778 | 153.69095 | 1911 ft | 688 kts | 163° |
| 2026-04-26 05:32 | -28.89266 | 153.70526 | 2084 ft | 566 kts | 163° |
| 2026-04-26 05:32 | -28.92655 | 153.71582 | 2145 ft | 480 kts | 163° |
| 2026-04-26 05:32 | -28.95761 | 153.71911 | 2775 ft | 434 kts | 201° |
| 2026-04-26 05:32 | -28.97484 | 153.69391 | 4350 ft | 414 kts | 259° |
| 2026-04-26 05:33 | -28.96885 | 153.66176 | 4050 ft | 437 kts | 303° |
| 2026-04-26 05:33 | -28.94586 | 153.63844 | 3606 ft | 450 kts | 332° |
| 2026-04-26 05:33 | -28.91591 | 153.62930 | 3539 ft | 447 kts | 359° |
| 2026-04-26 05:33 | -28.88600 | 153.63611 | 3654 ft | 437 kts | 26° |
| 2026-04-26 05:34 | -28.85978 | 153.65281 | 4164 ft | 425 kts | 32° |
| 2026-04-26 05:34 | -28.83430 | 153.66923 | 4767 ft | 418 kts | 31° |
| 2026-04-26 05:34 | -28.80912 | 153.68541 | 5345 ft | 413 kts | 31° |
| 2026-04-26 05:34 | -28.78395 | 153.70099 | 5863 ft | 413 kts | 26° |
| 2026-04-26 05:35 | -28.75517 | 153.70754 | 5483 ft | 435 kts | 4° |
| 2026-04-26 05:35 | -28.72502 | 153.70906 | 5755 ft | 433 kts | 4° |
| 2026-04-26 05:35 | -28.69494 | 153.71053 | 5896 ft | 435 kts | 4° |
| 2026-04-26 05:35 | -28.66449 | 153.71208 | 5908 ft | 439 kts | 5° |
| 2026-04-26 05:36 | -28.63384 | 153.71366 | 5922 ft | 442 kts | 5° |
| 2026-04-26 05:36 | -28.60299 | 153.71525 | 5932 ft | 444 kts | 5° |
| 2026-04-26 05:36 | -28.57210 | 153.71686 | 5936 ft | 445 kts | 5° |
| 2026-04-26 05:36 | -28.54110 | 153.71848 | 5930 ft | 446 kts | 5° |
| 2026-04-26 05:37 | -28.51010 | 153.72010 | 5932 ft | 447 kts | 4° |
| 2026-04-26 05:37 | -28.47898 | 153.72171 | 5932 ft | 447 kts | 5° |
| 2026-04-26 05:37 | -28.47028 | 153.72216 | 5933 ft | 447 kts | 5° |
| 2026-04-26 05:38 | -28.46616 | 153.72237 | 5930 ft | 452 kts | 5° |
| 2026-04-26 05:38 | -28.43417 | 153.72044 | 5974 ft | 427 kts | 348° |
| 2026-04-26 05:38 | -28.40962 | 153.70512 | 5140 ft | 407 kts | 316° |
| 2026-04-26 05:38 | -28.39668 | 153.67752 | 4861 ft | 394 kts | 283° |
| 2026-04-26 05:39 | -28.39728 | 153.64725 | 4826 ft | 379 kts | 253° |
| 2026-04-26 05:39 | -28.41015 | 153.62230 | 4873 ft | 362 kts | 222° |
| 2026-04-26 05:39 | -28.43126 | 153.60881 | 5049 ft | 344 kts | 192° |
| 2026-04-26 05:39 | -28.45455 | 153.60925 | 5104 ft | 333 kts | 161° |
| 2026-04-26 05:40 | -28.47317 | 153.62382 | 5162 ft | 328 kts | 129° |
| 2026-04-26 05:40 | -28.48147 | 153.64748 | 5296 ft | 326 kts | 98° |
| 2026-04-26 05:40 | -28.47769 | 153.67264 | 5503 ft | 328 kts | 69° |
| 2026-04-26 05:40 | -28.46357 | 153.69321 | 5459 ft | 339 kts | 42° |
| 2026-04-26 05:41 | -28.44205 | 153.70497 | 5398 ft | 351 kts | 17° |
| 2026-04-26 05:41 | -28.41752 | 153.70565 | 5397 ft | 358 kts | 353° |
| 2026-04-26 05:41 | -28.39292 | 153.69645 | 5431 ft | 426 kts | 340° |
| 2026-04-26 05:41 | -28.35974 | 153.68107 | 6018 ft | 605 kts | 338° |
| 2026-04-26 05:42 | -28.31457 | 153.66472 | 6087 ft | 719 kts | 345° |
| 2026-04-26 05:42 | -28.27245 | 153.65047 | 5810 ft | 572 kts | 344° |
| 2026-04-26 05:42 | -28.23703 | 153.63745 | 5354 ft | 502 kts | 343° |
| 2026-04-26 05:42 | -28.20541 | 153.62503 | 5140 ft | 463 kts | 342° |
| 2026-04-26 05:43 | -28.17614 | 153.61286 | 5179 ft | 437 kts | 341° |
| 2026-04-26 05:43 | -28.14817 | 153.60062 | 5206 ft | 422 kts | 340° |
| 2026-04-26 05:43 | -28.12124 | 153.58831 | 5209 ft | 413 kts | 339° |
| 2026-04-26 05:43 | -28.09495 | 153.57570 | 5296 ft | 420 kts | 337° |
| 2026-04-26 05:44 | -28.06827 | 153.55121 | 6228 ft | 562 kts | 315° |
| 2026-04-26 05:44 | -28.04151 | 153.51997 | 6270 ft | 540 kts | 314° |
| 2026-04-26 05:44 | -28.01596 | 153.48969 | 6180 ft | 527 kts | 314° |
| 2026-04-26 05:44 | -27.99922 | 153.46965 | 5678 ft | 529 kts | 314° |
| 2026-04-26 05:45 | -27.96643 | 153.42898 | 5755 ft | 512 kts | 312° |
| 2026-04-26 05:45 | -27.95087 | 153.40917 | 5958 ft | 506 kts | 312° |
| 2026-04-26 05:45 | -27.92780 | 153.37990 | 6732 ft | 489 kts | 312° |
| 2026-04-26 05:45 | -27.89772 | 153.34183 | 6998 ft | 493 kts | 312° |
| 2026-04-26 05:46 | -27.87480 | 153.31281 | 6999 ft | 497 kts | 312° |
| 2026-04-26 05:46 | -27.85919 | 153.29305 | 6998 ft | 498 kts | 312° |
| 2026-04-26 05:46 | -27.83605 | 153.26376 | 6996 ft | 500 kts | 312° |
| 2026-04-26 05:46 | -27.81283 | 153.23437 | 6995 ft | 502 kts | 312° |
| 2026-04-26 05:47 | -27.78989 | 153.20531 | 6984 ft | 502 kts | 312° |
| 2026-04-26 05:47 | -27.76663 | 153.17591 | 6976 ft | 502 kts | 312° |
| 2026-04-26 05:47 | -27.74337 | 153.14650 | 6971 ft | 502 kts | 312° |
| 2026-04-26 05:47 | -27.72016 | 153.11709 | 6966 ft | 502 kts | 312° |
| 2026-04-26 05:48 | -27.69692 | 153.08759 | 6964 ft | 502 kts | 312° |
| 2026-04-26 05:48 | -27.67378 | 153.05795 | 6962 ft | 502 kts | 311° |
| 2026-04-26 05:48 | -27.65305 | 153.02609 | 6956 ft | 502 kts | 306° |
| 2026-04-26 05:48 | -27.63960 | 153.00485 | 6955 ft | 502 kts | 306° |
| 2026-04-26 05:49 | -27.63260 | 152.99383 | 6957 ft | 502 kts | 306° |
| 2026-04-26 05:49 | -27.59741 | 152.92605 | 6939 ft | 503 kts | 291° |
| 2026-04-26 05:49 | -27.58435 | 152.88933 | 6944 ft | 504 kts | 292° |
| 2026-04-26 05:50 | -27.57113 | 152.85264 | 6945 ft | 504 kts | 292° |
| 2026-04-26 05:50 | -27.55805 | 152.81644 | 6941 ft | 505 kts | 292° |
| 2026-04-26 05:50 | -27.54494 | 152.77992 | 5293 ft | 527 kts | 290° |
| 2026-04-26 05:50 | -27.53857 | 152.74051 | 4080 ft | 457 kts | 270° |
| 2026-04-26 05:51 | -27.54428 | 152.70956 | 2943 ft | 366 kts | 242° |
| 2026-04-26 05:51 | -27.56076 | 152.69027 | 2181 ft | 342 kts | 202° |
| 2026-04-26 05:51 | -27.58275 | 152.68844 | 1732 ft | 309 kts | 163° |
| 2026-04-26 05:51 | -27.60292 | 152.69701 | 1382 ft | 326 kts | 157° |
| 2026-04-26 05:52 | -27.62271 | 152.70586 | 1189 ft | 287 kts | 156° |
| 2026-04-26 05:52 | -27.64047 | 152.71362 | 948 ft | 265 kts | 157° |
| 2026-04-26 05:52 | -27.64759 | 152.70790 | 1060 ft | 185 kts | 321° |
| 2026-04-26 05:52 | -27.63293 | 152.69978 | 844 ft | 225 kts | 338° |
| 2026-04-26 05:53 | -27.62027 | 152.69358 | 763 ft | 172 kts | 340° |
| 2026-04-26 05:53 | -27.61107 | 152.69608 | 849 ft | 142 kts | 78° |
| 2026-04-26 05:53 | -27.61633 | 152.70319 | 326 ft | 143 kts | 156° |
| 2026-04-26 05:53 | -27.62481 | 152.70657 | 94 ft | 110 kts | 157° |
| 2026-04-26 05:54 | -27.62976 | 152.70883 | 91 ft | 55 kts | 161° |
| 2026-04-26 05:54 | -27.63311 | 152.71032 | 88 ft | 46 kts | 160° |
| 2026-04-26 05:54 | -27.63383 | 152.70938 | 91 ft | 18 kts | 280° |